createdAt,value
2023-06-20T00:01:58.539Z,70.60
2023-06-20T00:04:25.808Z,70.70
2023-06-20T00:06:53.324Z,70.70
2023-06-20T00:09:20.557Z,70.80
2023-06-20T00:11:47.679Z,70.80
2023-06-20T00:14:14.798Z,70.80
2023-06-20T00:16:42.064Z,70.90
2023-06-20T00:19:09.964Z,70.90
2023-06-20T00:21:37.222Z,71.00
2023-06-20T00:24:04.514Z,71.10
2023-06-20T00:26:31.722Z,71.10
2023-06-20T00:28:58.916Z,71.20
2023-06-20T00:31:26.122Z,71.30
2023-06-20T00:33:53.339Z,71.30
2023-06-20T00:36:26.718Z,71.40
2023-06-20T00:38:54.685Z,71.40
2023-06-20T00:41:22.480Z,71.50
2023-06-20T00:43:50.089Z,71.60
2023-06-20T00:46:17.841Z,71.60
2023-06-20T00:48:46.398Z,71.70
2023-06-20T00:51:13.999Z,71.70
2023-06-20T00:53:42.485Z,71.80
2023-06-20T00:56:12.603Z,71.80
2023-06-20T00:58:39.879Z,71.90
2023-06-20T01:01:07.547Z,72.00
2023-06-20T01:03:37.951Z,72.00
2023-06-20T01:06:23.716Z,72.00
2023-06-20T01:09:14.291Z,72.00
2023-06-20T01:11:44.494Z,72.00
2023-06-20T01:14:26.398Z,72.00
2023-06-20T01:17:10.471Z,72.10
2023-06-20T01:19:37.699Z,72.10
2023-06-20T01:22:08.970Z,72.30
2023-06-20T01:24:39.417Z,72.20
2023-06-20T01:27:13.499Z,72.90
2023-06-20T01:29:47.229Z,72.30
2023-06-20T01:32:18.024Z,72.40
2023-06-20T01:34:53.313Z,72.50
2023-06-20T01:37:23.605Z,72.60
2023-06-20T01:39:52.561Z,72.60
2023-06-20T01:42:22.434Z,72.60
2023-06-20T01:44:52.608Z,72.70
2023-06-20T01:47:20.818Z,72.80
2023-06-20T01:49:49.996Z,72.80
2023-06-20T01:52:17.769Z,72.80
2023-06-20T01:54:48.294Z,72.90
2023-06-20T01:57:17.637Z,72.90
2023-06-20T01:59:45.526Z,73.00
2023-06-20T02:02:13.530Z,73.00
2023-06-20T02:04:42.211Z,73.00
2023-06-20T02:07:10.661Z,73.00
2023-06-20T02:09:38.476Z,73.10
2023-06-20T02:12:08.334Z,73.10
2023-06-20T02:14:37.007Z,73.10
2023-06-20T02:17:05.335Z,73.10
2023-06-20T02:19:32.569Z,73.10
2023-06-20T02:22:01.137Z,73.20
2023-06-20T02:24:31.376Z,73.30
2023-06-20T02:27:00.171Z,73.40
2023-06-20T02:29:28.512Z,73.40
2023-06-20T02:31:58.998Z,73.40
2023-06-20T02:34:27.427Z,73.50
2023-06-20T02:36:57.074Z,73.50
2023-06-20T02:39:24.904Z,73.60
2023-06-20T02:41:52.067Z,73.60
2023-06-20T02:44:19.287Z,73.60
2023-06-20T02:46:46.416Z,73.60
2023-06-20T02:49:39.952Z,73.70
2023-06-20T02:52:13.817Z,73.80
2023-06-20T02:54:59.777Z,73.80
2023-06-20T02:57:28.409Z,73.80
2023-06-20T02:59:59.856Z,73.80
2023-06-20T03:02:31.223Z,74.40
2023-06-20T03:05:00.654Z,73.90
2023-06-20T03:07:35.490Z,73.90
2023-06-20T03:10:05.367Z,73.90
2023-06-20T03:12:32.815Z,73.90
2023-06-20T03:15:00.006Z,73.90
2023-06-20T03:17:28.200Z,73.90
2023-06-20T03:19:56.056Z,73.90
2023-06-20T03:22:24.823Z,73.90
2023-06-20T03:24:52.084Z,73.90
2023-06-20T03:27:19.434Z,74.00
2023-06-20T03:29:46.654Z,74.00
2023-06-20T03:32:13.887Z,74.10
2023-06-20T03:34:41.013Z,74.10
2023-06-20T03:37:08.754Z,74.20
2023-06-20T03:39:35.937Z,74.30
2023-06-20T03:42:03.285Z,74.30
2023-06-20T03:44:34.532Z,74.40
2023-06-20T03:47:02.078Z,74.40
2023-06-20T03:49:29.875Z,74.50
2023-06-20T03:51:57.521Z,74.60
2023-06-20T03:54:24.852Z,74.60
2023-06-20T03:56:53.125Z,74.60
2023-06-20T03:59:20.442Z,74.70
2023-06-20T04:01:48.669Z,74.80
2023-06-20T04:04:16.038Z,74.80
2023-06-20T04:06:43.181Z,74.90
2023-06-20T04:09:10.425Z,74.90
2023-06-20T04:11:39.136Z,75.00
2023-06-20T04:14:07.159Z,75.00
2023-06-20T04:16:35.578Z,75.10
2023-06-20T04:19:02.904Z,75.10
2023-06-20T04:21:32.504Z,75.10
2023-06-20T04:23:59.898Z,75.10
2023-06-20T04:26:27.074Z,75.20
2023-06-20T04:28:54.324Z,75.20
2023-06-20T04:31:22.270Z,75.30
2023-06-20T04:33:49.433Z,75.40
2023-06-20T04:36:16.723Z,75.40
2023-06-20T04:38:49.654Z,75.50
2023-06-20T04:41:18.105Z,75.50
2023-06-20T04:43:46.078Z,75.60
2023-06-20T04:46:14.193Z,75.60
2023-06-20T04:48:41.615Z,75.70
2023-06-20T04:51:10.121Z,75.70
2023-06-20T04:53:37.556Z,75.70
2023-06-20T04:56:04.971Z,75.80
2023-06-20T04:58:32.405Z,75.80
2023-06-20T05:01:04.608Z,75.90
2023-06-20T05:03:32.083Z,75.90
2023-06-20T05:05:59.301Z,75.90
2023-06-20T05:08:26.583Z,76.00
2023-06-20T05:10:53.750Z,76.00
2023-06-20T05:13:21.011Z,76.20
2023-06-20T05:15:48.214Z,76.00
2023-06-20T05:18:15.505Z,76.10
2023-06-20T05:20:42.624Z,76.10
2023-06-20T05:23:10.006Z,76.10
2023-06-20T05:25:38.354Z,76.20
2023-06-20T05:28:06.919Z,76.20
2023-06-20T05:30:34.263Z,76.10
2023-06-20T05:33:01.723Z,76.10
2023-06-20T05:35:29.044Z,76.10
2023-06-20T05:37:56.425Z,76.20
2023-06-20T05:40:23.826Z,76.10
2023-06-20T05:42:51.214Z,76.20
2023-06-20T05:45:18.450Z,76.20
2023-06-20T05:47:45.697Z,76.20
2023-06-20T05:50:13.111Z,76.20
2023-06-20T05:52:40.342Z,76.20
2023-06-20T05:55:07.929Z,76.20
2023-06-20T05:57:35.215Z,76.20
2023-06-20T06:00:06.802Z,76.20
2023-06-20T06:02:46.798Z,76.20
2023-06-20T06:05:14.192Z,76.20
2023-06-20T06:07:41.277Z,76.20
2023-06-20T06:10:08.893Z,76.20
2023-06-20T06:12:36.975Z,76.20
2023-06-20T06:15:04.921Z,76.20
2023-06-20T06:17:32.525Z,76.10
2023-06-20T06:19:59.757Z,76.10
2023-06-20T06:22:26.913Z,76.10
2023-06-20T06:24:54.075Z,76.10
2023-06-20T06:27:21.371Z,76.00
2023-06-20T06:29:48.590Z,76.10
2023-06-20T06:32:16.070Z,76.10
2023-06-20T06:34:43.240Z,76.10
2023-06-20T06:37:10.810Z,76.10
2023-06-20T06:39:38.562Z,76.20
2023-06-20T06:42:05.833Z,76.20
2023-06-20T06:44:36.182Z,76.20
2023-06-20T06:47:03.600Z,76.30
2023-06-20T06:49:32.495Z,76.30
2023-06-20T06:51:59.729Z,76.30
2023-06-20T06:54:26.916Z,76.30
2023-06-20T06:56:54.260Z,76.40
2023-06-20T06:59:21.375Z,76.30
2023-06-20T07:01:48.566Z,76.30
2023-06-20T07:04:16.134Z,76.40
2023-06-20T07:06:43.410Z,76.40
2023-06-20T07:09:10.728Z,76.40
2023-06-20T07:11:37.801Z,76.40
2023-06-20T07:14:05.022Z,76.40
2023-06-20T07:16:33.457Z,76.40
2023-06-20T07:19:00.781Z,76.50
2023-06-20T07:21:28.344Z,76.50
2023-06-20T07:23:55.597Z,76.50
2023-06-20T07:26:23.138Z,76.50
2023-06-20T07:28:50.468Z,76.50
2023-06-20T07:31:18.498Z,76.50
2023-06-20T07:33:47.103Z,76.50
2023-06-20T07:36:14.601Z,76.50
2023-06-20T07:38:42.004Z,76.40
2023-06-20T07:41:09.187Z,76.30
2023-06-20T07:43:36.376Z,76.30
2023-06-20T07:46:03.622Z,76.20
2023-06-20T07:48:31.199Z,76.10
2023-06-20T07:50:58.585Z,76.10
2023-06-20T07:53:25.857Z,76.00
2023-06-20T07:55:53.770Z,75.90
2023-06-20T07:58:22.358Z,75.90
2023-06-20T08:00:49.600Z,75.90
2023-06-20T08:03:18.057Z,75.80
2023-06-20T08:05:45.479Z,75.80
2023-06-20T08:08:12.696Z,75.80
2023-06-20T08:10:39.941Z,75.80
2023-06-20T08:13:07.303Z,75.80
2023-06-20T08:15:34.643Z,75.80
2023-06-20T08:18:02.156Z,75.80
2023-06-20T08:20:29.370Z,75.80
2023-06-20T08:22:56.522Z,75.80
2023-06-20T08:25:23.885Z,75.80
2023-06-20T08:27:56.279Z,75.70
2023-06-20T08:30:33.301Z,75.80
2023-06-20T08:33:00.614Z,75.80
2023-06-20T08:35:27.833Z,75.80
2023-06-20T08:37:55.216Z,75.70
2023-06-20T08:40:22.773Z,76.30
2023-06-20T08:42:50.122Z,75.60
2023-06-20T08:45:17.561Z,75.50
2023-06-20T08:47:46.331Z,75.50
2023-06-20T08:50:13.592Z,75.40
2023-06-20T08:52:48.560Z,75.30
2023-06-20T08:55:16.757Z,75.30
2023-06-20T08:57:47.429Z,75.30
2023-06-20T09:00:17.971Z,75.40
2023-06-20T09:02:45.280Z,75.30
2023-06-20T09:05:12.440Z,75.30
2023-06-20T09:07:40.628Z,75.20
2023-06-20T09:10:08.505Z,75.10
2023-06-20T09:12:49.132Z,75.10
2023-06-20T09:15:17.143Z,75.00
2023-06-20T09:17:44.966Z,74.90
2023-06-20T09:20:13.201Z,74.80
2023-06-20T09:22:41.307Z,74.70
2023-06-20T09:25:12.115Z,74.60
2023-06-20T09:27:43.087Z,74.60
2023-06-20T09:30:10.448Z,74.50
2023-06-20T09:32:38.726Z,74.30
2023-06-20T09:35:06.391Z,74.30
2023-06-20T09:37:40.599Z,74.30
2023-06-20T09:40:26.307Z,74.30
2023-06-20T09:42:57.486Z,74.30
2023-06-20T09:45:24.710Z,74.30
2023-06-20T09:47:52.625Z,74.30
2023-06-20T09:50:21.335Z,74.40
2023-06-20T09:52:52.564Z,74.30
2023-06-20T09:55:20.053Z,74.30
2023-06-20T09:57:58.619Z,74.30
2023-06-20T10:00:28.756Z,74.30
2023-06-20T10:03:00.020Z,74.40
2023-06-20T10:05:28.605Z,74.30
2023-06-20T10:08:00.261Z,74.30
2023-06-20T10:10:27.866Z,74.10
2023-06-20T10:12:55.627Z,74.00
2023-06-20T10:15:23.232Z,74.00
2023-06-20T10:17:51.125Z,74.00
2023-06-20T10:20:29.825Z,73.90
2023-06-20T10:23:01.948Z,73.80
2023-06-20T10:25:29.304Z,73.80
2023-06-20T10:28:01.685Z,73.70
2023-06-20T10:30:47.549Z,73.70
2023-06-20T10:33:17.633Z,73.50
2023-06-20T10:35:54.158Z,73.50
2023-06-20T10:38:21.357Z,73.50
2023-06-20T10:40:48.521Z,73.40
2023-06-20T10:43:19.370Z,73.50
2023-06-20T10:45:54.590Z,73.60
2023-06-20T10:48:22.149Z,73.50
2023-06-20T10:50:49.440Z,73.30
2023-06-20T10:53:16.827Z,73.30
2023-06-20T10:55:43.968Z,73.20
2023-06-20T10:58:17.851Z,73.10
2023-06-20T11:00:56.383Z,73.00
2023-06-20T11:03:26.855Z,72.80
2023-06-20T11:05:57.380Z,72.70
2023-06-20T11:08:26.740Z,72.60
2023-06-20T11:10:54.985Z,72.40
2023-06-20T11:13:23.092Z,73.00
2023-06-20T11:15:50.645Z,72.30
2023-06-20T11:18:18.232Z,72.30
2023-06-20T11:20:45.765Z,72.20
2023-06-20T11:23:13.936Z,72.20
2023-06-20T11:25:43.269Z,72.30
2023-06-20T11:28:12.048Z,72.10
2023-06-20T11:30:40.274Z,72.00
2023-06-20T11:33:10.526Z,71.80
2023-06-20T11:35:40.848Z,71.70
2023-06-20T11:38:09.617Z,71.50
2023-06-20T11:40:37.618Z,71.40
2023-06-20T11:43:05.222Z,71.40
2023-06-20T11:45:33.340Z,71.30
2023-06-20T11:48:13.877Z,71.30
2023-06-20T11:50:44.640Z,71.20
2023-06-20T11:53:21.392Z,71.10
2023-06-20T11:55:51.423Z,71.10
2023-06-20T11:58:18.975Z,70.90
2023-06-20T12:01:00.374Z,70.90
2023-06-20T12:03:28.395Z,70.80
2023-06-20T12:05:58.315Z,70.80
2023-06-20T12:08:26.073Z,70.70
2023-06-20T12:11:02.799Z,70.60
2023-06-20T12:13:32.353Z,70.50
2023-06-20T12:15:59.522Z,70.40
2023-06-20T12:18:26.933Z,70.20
2023-06-20T12:21:02.810Z,70.20
2023-06-20T12:23:31.860Z,70.10
2023-06-20T12:26:01.934Z,70.20
2023-06-20T12:28:29.341Z,70.00
2023-06-20T12:30:56.535Z,70.00
2023-06-20T12:33:23.698Z,69.70
2023-06-20T12:35:51.006Z,69.60
2023-06-20T12:38:18.304Z,69.60
2023-06-20T12:40:45.576Z,69.40
2023-06-20T12:43:12.737Z,69.30
2023-06-20T12:45:39.915Z,69.20
2023-06-20T12:48:07.189Z,69.00
2023-06-20T12:50:34.358Z,69.00
2023-06-20T12:53:01.562Z,68.80
2023-06-20T12:55:28.947Z,68.70
2023-06-20T12:57:56.311Z,68.80
2023-06-20T13:00:23.757Z,68.80
2023-06-20T13:02:51.930Z,68.80
2023-06-20T13:05:19.753Z,68.80
2023-06-20T13:07:48.394Z,68.70
2023-06-20T13:10:18.013Z,68.60
2023-06-20T13:12:46.520Z,68.40
2023-06-20T13:15:15.842Z,68.30
2023-06-20T13:17:44.379Z,68.30
2023-06-20T13:20:12.124Z,68.10
2023-06-20T13:22:41.001Z,68.00
2023-06-20T13:25:08.413Z,68.10
2023-06-20T13:27:35.740Z,67.80
2023-06-20T13:30:03.030Z,67.60
2023-06-20T13:32:30.449Z,67.60
2023-06-20T13:34:57.941Z,67.60
2023-06-20T13:37:26.243Z,67.60
2023-06-20T13:39:53.513Z,67.60
2023-06-20T13:42:20.758Z,67.60
2023-06-20T13:44:47.963Z,67.50
2023-06-20T13:47:15.823Z,67.40
2023-06-20T13:49:43.235Z,67.30
2023-06-20T13:52:11.757Z,67.30
2023-06-20T13:54:39.047Z,67.30
2023-06-20T13:57:06.555Z,67.20
2023-06-20T13:59:33.944Z,67.10
2023-06-20T14:02:01.220Z,67.10
2023-06-20T14:04:28.429Z,66.90
2023-06-20T14:06:55.699Z,66.80
2023-06-20T14:09:24.445Z,66.80
2023-06-20T14:11:51.635Z,66.60
2023-06-20T14:14:18.875Z,66.70
2023-06-20T14:16:46.062Z,66.50
2023-06-20T14:19:13.318Z,66.60
2023-06-20T14:21:40.766Z,66.50
2023-06-20T14:24:08.171Z,66.50
2023-06-20T14:26:35.765Z,66.30
2023-06-20T14:29:03.003Z,66.30
2023-06-20T14:31:32.028Z,66.30
2023-06-20T14:34:01.004Z,66.30
2023-06-20T14:36:29.509Z,66.30
2023-06-20T14:38:56.830Z,66.20
2023-06-20T14:41:24.004Z,66.00
2023-06-20T14:43:51.264Z,65.90
2023-06-20T14:46:18.650Z,65.90
2023-06-20T14:48:46.070Z,65.90
2023-06-20T14:51:13.273Z,66.30
2023-06-20T14:53:42.856Z,65.60
2023-06-20T14:56:10.050Z,65.60
2023-06-20T14:58:37.397Z,65.60
2023-06-20T15:01:04.570Z,65.50
2023-06-20T15:03:31.912Z,65.40
2023-06-20T15:05:59.304Z,65.40
2023-06-20T15:08:26.566Z,65.10
2023-06-20T15:10:53.864Z,65.00
2023-06-20T15:13:21.088Z,64.90
2023-06-20T15:15:48.359Z,64.80
2023-06-20T15:18:15.652Z,64.80
2023-06-20T15:20:42.869Z,64.80
2023-06-20T15:23:10.173Z,65.00
2023-06-20T15:25:37.402Z,64.90
2023-06-20T15:28:06.076Z,64.80
2023-06-20T15:30:33.405Z,64.80
2023-06-20T15:33:05.484Z,64.60
2023-06-20T15:35:32.925Z,64.40
2023-06-20T15:38:01.355Z,64.30
2023-06-20T15:40:28.891Z,64.30
2023-06-20T15:42:56.720Z,64.20
2023-06-20T15:45:24.417Z,64.20
2023-06-20T15:47:51.751Z,64.20
2023-06-20T15:50:18.954Z,64.00
2023-06-20T15:52:46.241Z,64.00
2023-06-20T15:55:13.530Z,64.00
2023-06-20T15:57:40.740Z,64.00
2023-06-20T16:00:08.433Z,64.10
2023-06-20T16:02:35.738Z,64.10
2023-06-20T16:05:05.201Z,64.10
2023-06-20T16:07:34.985Z,63.90
2023-06-20T16:10:02.389Z,63.90
2023-06-20T16:12:29.513Z,63.90
2023-06-20T16:14:58.404Z,63.80
2023-06-20T16:17:25.739Z,63.60
2023-06-20T16:19:53.250Z,63.60
2023-06-20T16:22:21.254Z,64.10
2023-06-20T16:24:48.515Z,63.40
2023-06-20T16:27:16.119Z,63.50
2023-06-20T16:29:43.475Z,63.50
2023-06-20T16:32:10.936Z,63.40
2023-06-20T16:34:38.226Z,63.50
2023-06-20T16:37:06.340Z,63.50
2023-06-20T16:39:34.053Z,63.50
2023-06-20T16:42:01.393Z,63.60
2023-06-20T16:44:28.561Z,63.60
2023-06-20T16:46:56.147Z,63.80
2023-06-20T16:49:23.371Z,63.80
2023-06-20T16:51:50.742Z,63.80
2023-06-20T16:54:17.949Z,63.90
2023-06-20T16:56:45.088Z,63.90
2023-06-20T16:59:12.467Z,63.90
2023-06-20T17:01:39.808Z,64.00
2023-06-20T17:04:07.256Z,63.90
2023-06-20T17:06:34.422Z,64.00
2023-06-20T17:09:01.834Z,64.00
2023-06-20T17:11:29.108Z,64.00
2023-06-20T17:13:56.346Z,64.10
2023-06-20T17:16:23.754Z,64.10
2023-06-20T17:18:51.453Z,64.10
2023-06-20T17:21:18.664Z,64.20
2023-06-20T17:23:46.103Z,64.10
2023-06-20T17:26:13.409Z,64.10
2023-06-20T17:28:40.962Z,64.10
2023-06-20T17:31:08.927Z,64.20
2023-06-20T17:33:36.121Z,64.20
2023-06-20T17:36:03.653Z,64.30
2023-06-20T17:38:31.836Z,64.30
2023-06-20T17:40:59.226Z,64.30
2023-06-20T17:43:28.477Z,64.30
2023-06-20T17:45:55.860Z,64.40
2023-06-20T17:48:23.284Z,64.40
2023-06-20T17:50:50.731Z,64.50
2023-06-20T17:53:17.970Z,64.50
2023-06-20T17:55:45.124Z,64.50
2023-06-20T17:58:12.378Z,64.60
2023-06-20T18:00:39.690Z,64.70
2023-06-20T18:03:07.413Z,64.70
2023-06-20T18:05:34.863Z,64.70
2023-06-20T18:08:02.133Z,64.90
2023-06-20T18:10:29.617Z,64.90
2023-06-20T18:12:59.059Z,65.00
2023-06-20T18:15:27.513Z,65.20
2023-06-20T18:17:54.954Z,65.30
2023-06-20T18:20:23.227Z,65.40
2023-06-20T18:22:50.574Z,65.50
2023-06-20T18:25:17.825Z,65.60
2023-06-20T18:27:47.145Z,65.70
2023-06-20T18:30:14.591Z,65.90
2023-06-20T18:32:41.915Z,66.90
2023-06-20T18:35:09.290Z,66.90
2023-06-20T18:37:36.599Z,66.30
2023-06-20T18:40:04.592Z,66.30
2023-06-20T18:42:31.759Z,66.20
2023-06-20T18:44:58.960Z,66.30
2023-06-20T18:47:26.224Z,66.30
2023-06-20T18:49:55.837Z,66.20
2023-06-20T18:52:23.091Z,66.90
2023-06-20T18:54:50.274Z,67.30
2023-06-20T18:57:17.504Z,66.80
2023-06-20T18:59:44.760Z,66.70
2023-06-20T19:02:12.018Z,67.10
2023-06-20T19:04:39.285Z,67.30
2023-06-20T19:07:06.741Z,67.40
2023-06-20T19:09:36.160Z,67.50
2023-06-20T19:12:06.600Z,67.70
2023-06-20T19:14:35.549Z,68.10
2023-06-20T19:17:03.683Z,68.40
2023-06-20T19:19:31.330Z,68.70
2023-06-20T19:21:58.572Z,68.90
2023-06-20T19:24:27.552Z,69.40
2023-06-20T19:26:54.997Z,69.40
2023-06-20T19:29:22.162Z,69.70
2023-06-20T19:31:49.395Z,70.00
2023-06-20T19:34:16.650Z,70.20
2023-06-20T19:36:44.006Z,70.40
2023-06-20T19:39:11.370Z,70.60
2023-06-20T19:41:38.736Z,71.00
2023-06-20T19:44:06.351Z,71.20
2023-06-20T19:46:33.660Z,71.30
2023-06-20T19:49:02.570Z,71.50
2023-06-20T19:51:33.478Z,71.60
2023-06-20T19:54:01.205Z,71.80
2023-06-20T19:56:29.524Z,72.00
2023-06-20T19:58:57.124Z,72.10
2023-06-20T20:01:26.254Z,72.30
2023-06-20T20:03:58.536Z,72.40
2023-06-20T20:06:25.914Z,72.40
2023-06-20T20:08:53.229Z,72.60
2023-06-20T20:11:20.405Z,72.60
2023-06-20T20:13:47.600Z,72.80
2023-06-20T20:16:14.993Z,72.90
2023-06-20T20:18:42.362Z,73.00
2023-06-20T20:21:09.551Z,73.10
2023-06-20T20:23:43.469Z,73.20
2023-06-20T20:26:11.141Z,73.40
2023-06-20T20:28:38.357Z,73.50
2023-06-20T20:31:05.619Z,73.60
2023-06-20T20:33:32.901Z,73.70
2023-06-20T20:36:00.149Z,73.70
2023-06-20T20:38:27.484Z,73.90
2023-06-20T20:40:54.684Z,74.00
2023-06-20T20:43:22.045Z,74.10
2023-06-20T20:45:53.080Z,74.20
2023-06-20T20:48:21.911Z,74.30
2023-06-20T20:50:49.416Z,74.40
2023-06-20T20:53:16.816Z,74.60
2023-06-20T20:55:44.004Z,74.60
2023-06-20T20:58:11.278Z,74.70
2023-06-20T21:00:38.514Z,74.80
2023-06-20T21:03:09.004Z,74.90
2023-06-20T21:05:36.249Z,75.00
2023-06-20T21:08:03.878Z,75.10
2023-06-20T21:10:31.521Z,75.20
2023-06-20T21:12:58.684Z,75.30
2023-06-20T21:15:25.804Z,75.30
2023-06-20T21:17:53.134Z,75.40
2023-06-20T21:20:20.382Z,75.50
2023-06-20T21:22:47.582Z,75.60
2023-06-20T21:25:14.766Z,75.60
2023-06-20T21:27:41.912Z,75.60
2023-06-20T21:30:10.062Z,75.70
2023-06-20T21:32:37.238Z,75.80
2023-06-20T21:35:04.617Z,75.90
2023-06-20T21:37:31.764Z,76.00
2023-06-20T21:39:58.986Z,76.00
2023-06-20T21:42:26.108Z,76.10
2023-06-20T21:44:53.313Z,76.20
2023-06-20T21:47:20.633Z,76.20
2023-06-20T21:49:47.805Z,76.20
2023-06-20T21:52:15.016Z,76.30
2023-06-20T21:54:42.154Z,76.40
2023-06-20T21:57:09.437Z,76.40
2023-06-20T21:59:36.698Z,76.50
2023-06-20T22:02:05.806Z,76.60
2023-06-20T22:04:32.969Z,76.60
2023-06-20T22:07:00.229Z,76.70
2023-06-20T22:09:27.364Z,76.80
2023-06-20T22:11:54.626Z,76.90
2023-06-20T22:14:22.910Z,77.00
2023-06-20T22:16:50.079Z,77.10
2023-06-20T22:19:17.313Z,77.20
2023-06-20T22:21:44.558Z,77.30
2023-06-20T22:24:11.781Z,77.30
2023-06-20T22:26:39.047Z,77.40
2023-06-20T22:29:06.200Z,77.50
2023-06-20T22:31:33.744Z,77.60
2023-06-20T22:34:00.924Z,77.70
2023-06-20T22:36:28.277Z,77.70
2023-06-20T22:38:55.503Z,77.80
2023-06-20T22:41:22.769Z,77.90
2023-06-20T22:43:51.965Z,77.90
2023-06-20T22:46:24.427Z,77.90
2023-06-20T22:48:51.905Z,78.00
2023-06-20T22:51:19.254Z,78.00
2023-06-20T22:53:46.475Z,78.10
2023-06-20T22:56:13.752Z,78.10
2023-06-20T22:58:41.149Z,78.20
2023-06-20T23:01:08.386Z,78.30
2023-06-20T23:03:36.459Z,78.30
2023-06-20T23:06:03.742Z,78.30
2023-06-20T23:08:31.134Z,78.40
2023-06-20T23:10:58.250Z,78.50
2023-06-20T23:13:25.458Z,78.50
2023-06-20T23:15:52.642Z,78.50
2023-06-20T23:18:23.768Z,78.50
2023-06-20T23:20:51.600Z,78.60
2023-06-20T23:23:19.791Z,78.60
2023-06-20T23:25:47.051Z,78.60
2023-06-20T23:28:14.556Z,78.70
2023-06-20T23:30:41.743Z,78.70
2023-06-20T23:33:09.620Z,78.70
2023-06-20T23:35:36.914Z,78.70
2023-06-20T23:38:04.291Z,78.80
2023-06-20T23:40:31.561Z,78.80
2023-06-20T23:42:58.748Z,78.80
2023-06-20T23:45:26.428Z,78.90
2023-06-20T23:47:53.667Z,79.00
2023-06-20T23:50:20.870Z,79.10
2023-06-20T23:52:48.355Z,79.10
2023-06-20T23:55:15.511Z,79.10
2023-06-20T23:57:42.998Z,79.20
